Time;durP1;ratioP1;P1;durP2;ratioP2;P2;SDS_P1;SDS_P2;PMS_P1;PMS_P2;Temp;Humidity;BMP_temperature;BMP_pressure;BME280_temperature;BME280_humidity;BME280_pressure;Samples;Min_cycle;Max_cycle;Signal;HPM_P1;HPM_P2
2021/03/03 00:02:10;;;;;;;14.25;11.00;;;;;;;;;;4983820;28;20211;-79
2021/03/03 00:04:36;;;;;;;17.13;11.67;;;;;;;;;;4984373;28;20187;-79
2021/03/03 00:07:02;;;;;;;16.00;11.70;;;;;;;;;;4982610;28;20940;-79
2021/03/03 00:09:28;;;;;;;20.23;12.00;;;;;;;;;;4966870;28;20563;-79
2021/03/03 00:11:54;;;;;;;18.02;12.02;;;;;;;;;;4965525;28;20179;-79
2021/03/03 00:14:20;;;;;;;18.83;12.75;;;;;;;;;;4984124;28;20275;-79
2021/03/03 00:16:46;;;;;;;19.67;12.40;;;;;;;;;;4983629;28;20188;-79
2021/03/03 00:19:12;;;;;;;16.77;11.90;;;;;;;;;;4983802;28;20203;-79
2021/03/03 00:21:38;;;;;;;21.48;14.55;;;;;;;;;;4984330;28;20206;-79
2021/03/03 00:24:05;;;;;;;18.85;11.07;;;;;;;;;;4984459;28;20168;-79
2021/03/03 00:26:31;;;;;;;17.77;10.82;;;;;;;;;;4983878;28;20282;-79
2021/03/03 00:28:57;;;;;;;14.90;12.33;;;;;;;;;;4983825;28;20697;-79
2021/03/03 00:31:23;;;;;;;34.25;19.33;;;;;;;;;;4983865;28;20461;-79
2021/03/03 00:33:49;;;;;;;37.45;22.02;;;;;;;;;;4983996;28;20196;-79
2021/03/03 00:36:15;;;;;;;36.33;18.13;;;;;;;;;;4966366;28;20195;-79
2021/03/03 00:38:41;;;;;;;33.88;20.92;;;;;;;;;;4983774;28;20184;-79
2021/03/03 00:41:07;;;;;;;40.30;19.23;;;;;;;;;;4982388;28;20212;-78
2021/03/03 00:43:33;;;;;;;42.53;19.90;;;;;;;;;;4984104;28;20188;-79
2021/03/03 00:46:00;;;;;;;37.60;20.38;;;;;;;;;;4985176;28;20439;-78
2021/03/03 00:48:26;;;;;;;37.03;19.33;;;;;;;;;;4969765;28;20247;-79
2021/03/03 00:50:52;;;;;;;34.03;17.20;;;;;;;;;;4986684;28;20187;-79
2021/03/03 00:53:18;;;;;;;32.72;18.25;;;;;;;;;;4987190;28;20183;-79
2021/03/03 00:55:50;;;;;;;32.17;17.42;;;;;;;;;;4985353;28;20188;-79
2021/03/03 00:58:16;;;;;;;22.67;14.27;;;;;;;;;;4979104;28;20195;-79
2021/03/03 01:00:42;;;;;;;22.53;13.63;;;;;;;;;;4970067;28;20290;-80
2021/03/03 01:03:08;;;;;;;22.23;13.85;;;;;;;;;;4987898;28;20497;-80
2021/03/03 01:05:33;;;;;;;17.83;12.10;;;;;;;;;;4987196;28;20202;-79
2021/03/03 01:08:00;;;;;;;18.50;12.50;;;;;;;;;;4985481;28;20195;-79
2021/03/03 01:10:26;;;;;;;20.55;12.93;;;;;;;;;;4987176;28;20431;-79
2021/03/03 01:12:52;;;;;;;19.85;12.35;;;;;;;;;;4986904;28;20238;-79
2021/03/03 01:15:18;;;;;;;21.80;13.35;;;;;;;;;;4986714;28;20172;-79
2021/03/03 01:17:44;;;;;;;25.90;14.07;;;;;;;;;;4987031;28;20183;-78
2021/03/03 01:20:10;;;;;;;18.70;12.18;;;;;;;;;;4985833;28;20180;-79
2021/03/03 01:22:36;;;;;;;19.38;11.93;;;;;;;;;;4986547;28;20207;-79
2021/03/03 01:25:03;;;;;;;26.13;13.30;;;;;;;;;;4987072;28;20672;-79
2021/03/03 01:27:29;;;;;;;29.02;13.95;;;;;;;;;;4986430;28;20215;-79
2021/03/03 01:29:55;;;;;;;21.83;12.10;;;;;;;;;;4985935;28;20179;-79
2021/03/03 01:32:21;;;;;;;18.27;12.63;;;;;;;;;;4986927;28;20449;-79
2021/03/03 01:34:47;;;;;;;18.17;12.20;;;;;;;;;;4986316;28;20450;-79
2021/03/03 01:37:13;;;;;;;22.98;12.05;;;;;;;;;;4985154;28;20667;-79
2021/03/03 01:39:39;;;;;;;16.35;11.80;;;;;;;;;;4986510;28;20259;-79
2021/03/03 01:42:05;;;;;;;18.20;10.97;;;;;;;;;;4986137;28;20199;-79
2021/03/03 01:44:31;;;;;;;19.85;13.30;;;;;;;;;;4986071;28;20431;-79
2021/03/03 01:46:57;;;;;;;20.48;13.45;;;;;;;;;;4985523;28;20251;-79
2021/03/03 01:49:23;;;;;;;17.05;11.73;;;;;;;;;;4986510;28;20184;-79
2021/03/03 01:51:49;;;;;;;25.70;13.77;;;;;;;;;;4986528;28;20281;-79
2021/03/03 01:54:15;;;;;;;19.33;12.85;;;;;;;;;;4986644;28;20247;-79
2021/03/03 01:56:41;;;;;;;15.90;12.37;;;;;;;;;;4985329;28;20172;-79
2021/03/03 01:59:06;;;;;;;15.02;11.68;;;;;;;;;;4984287;28;20442;-79
2021/03/03 02:01:32;;;;;;;19.07;12.67;;;;;;;;;;4977814;28;20215;-79
2021/03/03 02:03:58;;;;;;;24.80;14.50;;;;;;;;;;4966400;28;20515;-79
2021/03/03 02:06:24;;;;;;;26.52;13.43;;;;;;;;;;4985807;28;20420;-79
2021/03/03 02:09:05;;;;;;;17.70;12.85;;;;;;;;;;4969272;28;20176;-80
2021/03/03 02:11:43;;;;;;;24.52;14.57;;;;;;;;;;4970982;28;20188;-79
2021/03/03 02:14:13;;;;;;;24.17;15.07;;;;;;;;;;4985678;28;20199;-79
2021/03/03 02:16:39;;;;;;;21.02;14.70;;;;;;;;;;4985165;28;20239;-79
2021/03/03 02:19:06;;;;;;;25.38;15.15;;;;;;;;;;4985578;28;20200;-79
2021/03/03 02:21:36;;;;;;;21.05;14.02;;;;;;;;;;4968089;28;20203;-79
2021/03/03 02:24:12;;;;;;;24.10;15.40;;;;;;;;;;4986654;28;20250;-79
2021/03/03 02:26:39;;;;;;;28.20;15.82;;;;;;;;;;4985633;28;20278;-79
2021/03/03 02:29:10;;;;;;;20.83;14.40;;;;;;;;;;4984947;28;20203;-79
2021/03/03 02:31:36;;;;;;;19.27;14.55;;;;;;;;;;4985373;28;20191;-79
2021/03/03 02:34:03;;;;;;;22.35;15.00;;;;;;;;;;4984141;28;20192;-79
2021/03/03 02:36:30;;;;;;;24.25;15.40;;;;;;;;;;4967796;28;20180;-79
2021/03/03 02:38:56;;;;;;;30.92;17.67;;;;;;;;;;4984554;28;20183;-79
2021/03/03 02:41:22;;;;;;;25.80;16.83;;;;;;;;;;4984838;28;20206;-79
2021/03/03 02:43:48;;;;;;;25.58;16.23;;;;;;;;;;4984706;28;20215;-79
2021/03/03 02:46:15;;;;;;;19.88;14.98;;;;;;;;;;4983369;28;20184;-79
2021/03/03 02:48:41;;;;;;;21.90;15.15;;;;;;;;;;4984615;28;20262;-79
2021/03/03 02:51:07;;;;;;;25.33;15.68;;;;;;;;;;4985920;28;20180;-79
2021/03/03 02:53:34;;;;;;;24.90;17.00;;;;;;;;;;4983608;28;20198;-79
2021/03/03 02:56:00;;;;;;;23.60;16.60;;;;;;;;;;4984635;28;20202;-79
2021/03/03 02:58:26;;;;;;;24.10;17.00;;;;;;;;;;4983592;28;20260;-79
2021/03/03 03:00:57;;;;;;;23.77;16.33;;;;;;;;;;4984892;28;20208;-79
2021/03/03 03:03:23;;;;;;;25.45;15.75;;;;;;;;;;4967720;28;20665;-79
2021/03/03 03:05:53;;;;;;;29.63;18.50;;;;;;;;;;4986029;28;20243;-79
2021/03/03 03:08:21;;;;;;;21.65;16.85;;;;;;;;;;4982340;28;20194;-79
2021/03/03 03:10:47;;;;;;;21.85;15.98;;;;;;;;;;4983935;28;20192;-79
2021/03/03 03:13:14;;;;;;;24.98;16.73;;;;;;;;;;4984864;28;20189;-79
2021/03/03 03:15:40;;;;;;;34.78;17.48;;;;;;;;;;4984766;28;20222;-79
2021/03/03 03:18:09;;;;;;;27.13;16.52;;;;;;;;;;4985162;28;20200;-79
2021/03/03 03:20:36;;;;;;;26.38;18.15;;;;;;;;;;4984488;28;20294;-79
2021/03/03 03:23:04;;;;;;;26.98;17.40;;;;;;;;;;4984934;28;20558;-79
2021/03/03 03:25:30;;;;;;;25.02;17.48;;;;;;;;;;4984092;28;20191;-79
2021/03/03 03:27:58;;;;;;;24.73;16.50;;;;;;;;;;4984157;28;20191;-79
2021/03/03 03:30:24;;;;;;;24.77;18.42;;;;;;;;;;4984849;28;20179;-79
2021/03/03 03:32:51;;;;;;;26.85;19.08;;;;;;;;;;4967678;28;20186;-79
2021/03/03 03:35:18;;;;;;;25.80;17.77;;;;;;;;;;4971394;28;20195;-79
2021/03/03 03:37:44;;;;;;;25.83;17.50;;;;;;;;;;4984610;28;20537;-79
2021/03/03 03:40:10;;;;;;;30.63;18.10;;;;;;;;;;4984077;28;20257;-79
2021/03/03 03:42:36;;;;;;;24.75;17.52;;;;;;;;;;4984413;28;20262;-79
2021/03/03 03:45:04;;;;;;;24.70;16.92;;;;;;;;;;4967723;28;20226;-79
2021/03/03 03:47:30;;;;;;;28.73;19.13;;;;;;;;;;4983779;28;20243;-79
2021/03/03 03:49:56;;;;;;;25.35;17.42;;;;;;;;;;4982780;28;20558;-79
2021/03/03 03:52:22;;;;;;;24.17;17.08;;;;;;;;;;4984399;28;20188;-79
2021/03/03 03:54:52;;;;;;;21.58;16.70;;;;;;;;;;4983742;28;20279;-79
2021/03/03 03:57:18;;;;;;;23.75;16.17;;;;;;;;;;4984143;28;20194;-79
2021/03/03 03:59:44;;;;;;;22.13;15.40;;;;;;;;;;4983429;28;20231;-79
2021/03/03 04:02:11;;;;;;;24.23;17.10;;;;;;;;;;4971855;28;20207;-79
2021/03/03 04:04:37;;;;;;;26.05;18.10;;;;;;;;;;4984092;28;20195;-79
2021/03/03 04:07:03;;;;;;;28.63;18.50;;;;;;;;;;4984689;28;20179;-78
2021/03/03 04:09:29;;;;;;;25.35;16.20;;;;;;;;;;4983402;28;20195;-79
2021/03/03 04:11:56;;;;;;;25.13;16.98;;;;;;;;;;4983493;28;20198;-79
2021/03/03 04:14:22;;;;;;;24.63;17.92;;;;;;;;;;4984006;28;20206;-79
2021/03/03 04:16:48;;;;;;;29.10;17.42;;;;;;;;;;4984206;28;20211;-79
2021/03/03 04:19:14;;;;;;;24.23;16.85;;;;;;;;;;4979398;28;20459;-79
2021/03/03 04:21:39;;;;;;;22.65;16.05;;;;;;;;;;4987333;28;20211;-79
2021/03/03 04:24:06;;;;;;;23.05;15.50;;;;;;;;;;4988586;28;20185;-79
2021/03/03 04:26:32;;;;;;;24.10;16.38;;;;;;;;;;4987677;28;20264;-79
2021/03/03 04:28:58;;;;;;;23.17;17.35;;;;;;;;;;4985938;28;20195;-79
2021/03/03 04:31:24;;;;;;;26.25;17.90;;;;;;;;;;4987536;28;20219;-79
2021/03/03 04:33:50;;;;;;;25.42;18.20;;;;;;;;;;4986395;28;20192;-79
2021/03/03 04:36:16;;;;;;;31.27;18.55;;;;;;;;;;4987852;28;20175;-79
2021/03/03 04:38:42;;;;;;;24.23;18.98;;;;;;;;;;4987425;28;20262;-79
2021/03/03 04:41:08;;;;;;;25.55;18.20;;;;;;;;;;4987286;28;20289;-79
2021/03/03 04:43:34;;;;;;;28.60;16.98;;;;;;;;;;4987380;28;20374;-79
2021/03/03 04:46:00;;;;;;;24.10;15.47;;;;;;;;;;4985940;28;20192;-79
2021/03/03 04:48:26;;;;;;;27.38;16.85;;;;;;;;;;4966233;29;20687;-79
2021/03/03 04:50:51;;;;;;;28.20;15.52;;;;;;;;;;4968683;28;20180;-79
2021/03/03 04:53:18;;;;;;;27.80;16.10;;;;;;;;;;4967519;28;20188;-79
2021/03/03 04:55:44;;;;;;;25.65;17.05;;;;;;;;;;4967930;28;20471;-79
2021/03/03 04:58:10;;;;;;;24.45;16.70;;;;;;;;;;4967735;28;20199;-79
2021/03/03 05:00:36;;;;;;;26.25;15.85;;;;;;;;;;4965978;29;20197;-78
2021/03/03 05:03:03;;;;;;;21.73;15.07;;;;;;;;;;4968842;28;20188;-79
2021/03/03 05:05:29;;;;;;;29.52;17.90;;;;;;;;;;4966334;29;20420;-79
2021/03/03 05:07:55;;;;;;;20.48;16.20;;;;;;;;;;4973144;28;20184;-79
2021/03/03 05:10:21;;;;;;;19.50;15.10;;;;;;;;;;4967386;28;20185;-79
2021/03/03 05:12:47;;;;;;;22.13;16.23;;;;;;;;;;4967566;28;20196;-79
2021/03/03 05:15:13;;;;;;;21.55;15.07;;;;;;;;;;4968311;28;20184;-79
2021/03/03 05:17:39;;;;;;;19.90;15.88;;;;;;;;;;4967620;28;20211;-79
2021/03/03 05:20:06;;;;;;;23.77;15.55;;;;;;;;;;4967396;29;20185;-79
2021/03/03 05:22:33;;;;;;;28.30;16.00;;;;;;;;;;4966918;28;20214;-79
2021/03/03 05:24:59;;;;;;;24.80;15.68;;;;;;;;;;4965907;29;20185;-79
2021/03/03 05:27:25;;;;;;;28.43;15.67;;;;;;;;;;4966144;29;20324;-79
2021/03/03 05:29:51;;;;;;;19.90;14.43;;;;;;;;;;4982870;28;20439;-79
2021/03/03 05:32:17;;;;;;;21.83;16.48;;;;;;;;;;4966001;28;20474;-80
2021/03/03 05:34:43;;;;;;;22.50;15.20;;;;;;;;;;4965808;29;20275;-79
2021/03/03 05:37:09;;;;;;;24.65;15.77;;;;;;;;;;4975105;28;20208;-79
2021/03/03 05:39:34;;;;;;;21.52;14.98;;;;;;;;;;4966940;28;20203;-80
2021/03/03 05:42:01;;;;;;;24.07;15.23;;;;;;;;;;4966479;28;20219;-80
2021/03/03 05:44:27;;;;;;;22.25;16.17;;;;;;;;;;4966963;28;20518;-79
2021/03/03 05:46:54;;;;;;;24.38;14.15;;;;;;;;;;4970659;28;20274;-79
2021/03/03 05:49:24;;;;;;;21.45;15.93;;;;;;;;;;4986094;28;20184;-79
2021/03/03 05:51:50;;;;;;;24.42;16.45;;;;;;;;;;4986093;28;20191;-79
2021/03/03 05:54:17;;;;;;;25.50;16.15;;;;;;;;;;4968978;28;20180;-79
2021/03/03 05:56:43;;;;;;;19.38;15.32;;;;;;;;;;4986627;28;20180;-80
2021/03/03 05:59:11;;;;;;;17.23;15.23;;;;;;;;;;4985896;28;20224;-79
2021/03/03 06:01:37;;;;;;;22.92;15.85;;;;;;;;;;4985827;28;20708;-79
2021/03/03 06:04:04;;;;;;;21.70;14.35;;;;;;;;;;4984611;28;20187;-79
2021/03/03 06:06:30;;;;;;;18.58;14.48;;;;;;;;;;4985547;28;20661;-80
2021/03/03 06:08:56;;;;;;;24.85;15.05;;;;;;;;;;4984908;28;20538;-80
2021/03/03 06:11:22;;;;;;;20.33;14.77;;;;;;;;;;4972140;28;20199;-80
2021/03/03 06:13:48;;;;;;;25.50;16.05;;;;;;;;;;4985830;28;20292;-80
2021/03/03 06:16:16;;;;;;;23.50;15.10;;;;;;;;;;4984558;28;20722;-80
2021/03/03 06:18:42;;;;;;;25.05;16.08;;;;;;;;;;4968841;28;20884;-79
2021/03/03 06:21:23;;;;;;;24.30;18.17;;;;;;;;;;4968662;28;20199;-79
2021/03/03 06:23:58;;;;;;;24.00;15.82;;;;;;;;;;4985864;28;20179;-79
2021/03/03 06:26:24;;;;;;;21.63;15.40;;;;;;;;;;4985485;28;20191;-79
2021/03/03 06:28:50;;;;;;;23.00;14.77;;;;;;;;;;4985212;28;20191;-79
2021/03/03 06:31:37;;;;;;;22.80;16.20;;;;;;;;;;4985912;28;20438;-79
2021/03/03 06:34:19;;;;;;;20.50;15.02;;;;;;;;;;4972340;28;20583;-79
2021/03/03 06:36:58;;;;;;;19.67;13.98;;;;;;;;;;4970318;28;20208;-79
2021/03/03 06:39:24;;;;;;;22.20;13.80;;;;;;;;;;4967726;28;20287;-79
2021/03/03 06:41:51;;;;;;;20.58;13.95;;;;;;;;;;4986147;28;20211;-79
2021/03/03 06:44:17;;;;;;;23.77;14.95;;;;;;;;;;4984877;28;20266;-80
2021/03/03 06:46:43;;;;;;;27.23;15.25;;;;;;;;;;4983986;28;20270;-80
2021/03/03 06:49:22;;;;;;;17.85;12.73;;;;;;;;;;4984617;28;20600;-80
2021/03/03 06:51:50;;;;;;;22.17;15.45;;;;;;;;;;4953190;28;20196;-79
2021/03/03 06:54:23;;;;;;;22.42;16.52;;;;;;;;;;4968064;28;20227;-79
2021/03/03 06:56:49;;;;;;;21.90;15.13;;;;;;;;;;4985616;28;20180;-79
2021/03/03 06:59:25;;;;;;;21.55;16.52;;;;;;;;;;4985042;28;20187;-80
2021/03/03 07:01:54;;;;;;;24.42;15.18;;;;;;;;;;4984956;28;20688;-79
2021/03/03 07:04:22;;;;;;;22.65;17.67;;;;;;;;;;4984605;28;20261;-79
2021/03/03 07:06:49;;;;;;;28.05;16.95;;;;;;;;;;4985310;28;20180;-79
2021/03/03 07:09:15;;;;;;;18.45;14.15;;;;;;;;;;4985000;28;20203;-80
2021/03/03 07:11:42;;;;;;;24.45;16.02;;;;;;;;;;4985174;28;20175;-80
2021/03/03 07:14:21;;;;;;;25.55;15.93;;;;;;;;;;4984717;28;20215;-79
2021/03/03 07:17:10;;;;;;;21.60;14.85;;;;;;;;;;4984493;28;20188;-80
2021/03/03 07:19:37;;;;;;;25.73;16.05;;;;;;;;;;4964042;28;20199;-80
2021/03/03 07:22:07;;;;;;;25.90;15.95;;;;;;;;;;4984617;28;20210;-80
2021/03/03 07:24:33;;;;;;;25.60;15.23;;;;;;;;;;4967561;28;20279;-80
2021/03/03 07:27:00;;;;;;;27.85;16.30;;;;;;;;;;4984054;28;20294;-80
2021/03/03 07:29:26;;;;;;;22.55;14.95;;;;;;;;;;4984196;28;20267;-79
2021/03/03 07:31:53;;;;;;;24.63;17.42;;;;;;;;;;4982837;28;20242;-80
2021/03/03 07:34:19;;;;;;;24.20;17.10;;;;;;;;;;4984197;28;20184;-80
2021/03/03 07:36:49;;;;;;;24.75;16.80;;;;;;;;;;4983571;28;20240;-80
2021/03/03 07:39:17;;;;;;;27.98;18.17;;;;;;;;;;4984615;28;20175;-80
2021/03/03 07:41:44;;;;;;;22.05;16.20;;;;;;;;;;4967200;28;20282;-80
2021/03/03 07:44:10;;;;;;;25.65;16.63;;;;;;;;;;4972851;28;20180;-80
2021/03/03 07:46:38;;;;;;;25.00;15.68;;;;;;;;;;4983818;28;20255;-80
2021/03/03 07:49:04;;;;;;;21.65;16.58;;;;;;;;;;4984320;28;20191;-80
2021/03/03 07:51:30;;;;;;;23.27;15.65;;;;;;;;;;4984305;28;20182;-79
2021/03/03 07:53:57;;;;;;;27.73;18.05;;;;;;;;;;4985110;28;20199;-80
2021/03/03 07:56:24;;;;;;;23.63;15.65;;;;;;;;;;4987212;28;20278;-79
2021/03/03 07:58:50;;;;;;;26.40;17.40;;;;;;;;;;4988563;28;20211;-80
2021/03/03 08:01:16;;;;;;;20.13;15.48;;;;;;;;;;4986179;28;20262;-80
2021/03/03 08:03:50;;;;;;;27.05;18.25;;;;;;;;;;4971622;28;20188;-80
2021/03/03 08:06:22;;;;;;;23.45;16.90;;;;;;;;;;4968147;28;20172;-80
2021/03/03 08:09:06;;;;;;;25.52;15.85;;;;;;;;;;4988737;28;20172;-80
2021/03/03 08:11:42;;;;;;;23.33;16.10;;;;;;;;;;4987613;28;20222;-80
2021/03/03 08:14:27;;;;;;;24.13;16.63;;;;;;;;;;4987998;28;20183;-80
2021/03/03 08:16:54;;;;;;;23.10;16.58;;;;;;;;;;4987324;28;20187;-80
2021/03/03 08:19:20;;;;;;;30.80;17.85;;;;;;;;;;4987721;28;20180;-80
2021/03/03 08:21:47;;;;;;;22.13;16.73;;;;;;;;;;4987979;28;20258;-80
2021/03/03 08:24:33;;;;;;;29.77;17.00;;;;;;;;;;4988863;28;20443;-79
2021/03/03 08:26:59;;;;;;;25.40;17.02;;;;;;;;;;4987027;28;20183;-79
2021/03/03 08:29:27;;;;;;;25.33;16.60;;;;;;;;;;4987500;28;20207;-79
2021/03/03 08:31:53;;;;;;;27.88;17.35;;;;;;;;;;4987080;28;20188;-79
2021/03/03 08:34:19;;;;;;;27.80;18.00;;;;;;;;;;4986354;28;20184;-79
2021/03/03 08:36:46;;;;;;;29.17;18.52;;;;;;;;;;4988274;28;20211;-80
2021/03/03 08:39:12;;;;;;;26.05;18.67;;;;;;;;;;4988760;28;20267;-80
2021/03/03 08:41:39;;;;;;;31.17;19.97;;;;;;;;;;4986911;28;20215;-80
2021/03/03 08:44:05;;;;;;;29.30;19.20;;;;;;;;;;4987479;28;20466;-80
2021/03/03 08:46:39;;;;;;;28.63;19.10;;;;;;;;;;4985736;28;20176;-80
2021/03/03 08:49:04;;;;;;;30.67;19.58;;;;;;;;;;4967282;28;20451;-80
2021/03/03 08:51:31;;;;;;;27.00;18.17;;;;;;;;;;4987137;28;20180;-80
2021/03/03 08:53:58;;;;;;;31.30;18.73;;;;;;;;;;4988100;28;20426;-80
2021/03/03 08:56:41;;;;;;;29.70;18.75;;;;;;;;;;4987479;28;20192;-80
2021/03/03 08:59:26;;;;;;;32.13;19.65;;;;;;;;;;4985580;28;20596;-80
2021/03/03 09:02:05;;;;;;;26.48;17.67;;;;;;;;;;4977329;28;20661;-80
2021/03/03 09:04:47;;;;;;;28.25;19.25;;;;;;;;;;4967061;28;20226;-80
2021/03/03 09:07:15;;;;;;;29.00;19.45;;;;;;;;;;4985793;28;20183;-80
2021/03/03 09:09:45;;;;;;;29.17;19.90;;;;;;;;;;4986984;28;20198;-80
2021/03/03 09:12:12;;;;;;;27.80;20.27;;;;;;;;;;4983946;28;20187;-80
2021/03/03 09:14:39;;;;;;;32.72;20.25;;;;;;;;;;4986431;28;20215;-80
2021/03/03 09:17:07;;;;;;;28.55;19.58;;;;;;;;;;4986684;28;20188;-80
2021/03/03 09:19:34;;;;;;;26.00;21.02;;;;;;;;;;4987161;28;20207;-80
2021/03/03 09:22:01;;;;;;;29.25;22.65;;;;;;;;;;4986496;28;20267;-80
2021/03/03 09:24:27;;;;;;;23.88;18.23;;;;;;;;;;4986901;28;20237;-80
2021/03/03 09:27:06;;;;;;;29.65;20.67;;;;;;;;;;4987666;28;20191;-80
2021/03/03 09:29:33;;;;;;;30.67;20.60;;;;;;;;;;4984778;28;20342;-80
2021/03/03 09:32:04;;;;;;;29.23;19.48;;;;;;;;;;4986489;28;20211;-80
2021/03/03 09:34:32;;;;;;;27.40;20.73;;;;;;;;;;4986962;28;20184;-80
2021/03/03 09:37:00;;;;;;;30.77;20.85;;;;;;;;;;4985259;28;20187;-80
2021/03/03 09:39:26;;;;;;;31.55;19.25;;;;;;;;;;4986229;28;20554;-80
2021/03/03 09:41:56;;;;;;;25.50;19.88;;;;;;;;;;4987042;28;20286;-80
2021/03/03 09:44:23;;;;;;;26.73;19.75;;;;;;;;;;4985939;28;20184;-80
2021/03/03 09:46:56;;;;;;;30.00;19.77;;;;;;;;;;4986281;28;20212;-80
2021/03/03 09:49:26;;;;;;;29.85;20.65;;;;;;;;;;4986560;28;20176;-80
2021/03/03 09:51:52;;;;;;;28.27;18.40;;;;;;;;;;4984816;28;20188;-79
2021/03/03 09:54:35;;;;;;;32.17;18.90;;;;;;;;;;4986726;28;20246;-80
2021/03/03 09:57:21;;;;;;;23.65;17.25;;;;;;;;;;4986890;28;20171;-80
2021/03/03 09:59:48;;;;;;;30.00;17.60;;;;;;;;;;4986112;28;20238;-80
2021/03/03 10:02:22;;;;;;;31.17;18.20;;;;;;;;;;4985521;28;20219;-80
2021/03/03 10:04:49;;;;;;;31.38;19.17;;;;;;;;;;4984574;28;20186;-80
2021/03/03 10:07:16;;;;;;;32.03;21.40;;;;;;;;;;4986511;28;20184;-80
2021/03/03 10:09:43;;;;;;;36.63;22.88;;;;;;;;;;4986198;28;20184;-79
2021/03/03 10:12:10;;;;;;;35.67;23.50;;;;;;;;;;4968680;28;20187;-80
2021/03/03 10:14:36;;;;;;;31.10;21.27;;;;;;;;;;4985695;28;20187;-80
2021/03/03 10:17:03;;;;;;;29.33;20.48;;;;;;;;;;4984274;28;20355;-80
2021/03/03 10:19:29;;;;;;;28.58;19.73;;;;;;;;;;4977491;28;20636;-80
2021/03/03 10:21:55;;;;;;;29.27;20.70;;;;;;;;;;4985215;28;20203;-80
2021/03/03 10:24:22;;;;;;;28.15;19.88;;;;;;;;;;4986200;28;20199;-80
2021/03/03 10:26:50;;;;;;;31.50;21.05;;;;;;;;;;4985370;28;20176;-80
2021/03/03 10:29:33;;;;;;;26.83;19.65;;;;;;;;;;4984064;28;20187;-80
2021/03/03 10:32:12;;;;;;;30.05;21.45;;;;;;;;;;4974608;28;20192;-80
2021/03/03 10:34:39;;;;;;;24.98;19.55;;;;;;;;;;4985514;28;20196;-80
2021/03/03 10:37:05;;;;;;;30.83;20.17;;;;;;;;;;4985435;28;20192;-80
2021/03/03 10:39:33;;;;;;;27.25;18.92;;;;;;;;;;4985549;28;20172;-80
2021/03/03 10:42:05;;;;;;;23.25;16.92;;;;;;;;;;4985346;28;20543;-80
2021/03/03 10:44:49;;;;;;;23.48;15.05;;;;;;;;;;4984090;28;20180;-80
2021/03/03 10:47:15;;;;;;;12.80;9.70;;;;;;;;;;4972457;28;20292;-80
2021/03/03 10:49:41;;;;;;;12.10;7.25;;;;;;;;;;4985498;28;20231;-80
2021/03/03 10:52:18;;;;;;;9.20;5.83;;;;;;;;;;4964421;28;20191;-80
2021/03/03 10:54:44;;;;;;;11.23;5.72;;;;;;;;;;4968660;28;20439;-80
2021/03/03 10:57:10;;;;;;;14.32;5.75;;;;;;;;;;4968464;28;20176;-78
2021/03/03 10:59:39;;;;;;;11.40;5.97;;;;;;;;;;4969575;28;20188;-79
2021/03/03 11:02:09;;;;;;;12.10;6.40;;;;;;;;;;4984617;28;20208;-79
2021/03/03 11:04:39;;;;;;;14.60;6.15;;;;;;;;;;4965180;28;20194;-78
2021/03/03 11:07:05;;;;;;;10.10;5.78;;;;;;;;;;4985170;28;20248;-79
2021/03/03 11:09:31;;;;;;;20.08;6.30;;;;;;;;;;4967215;28;20187;-78
2021/03/03 11:11:57;;;;;;;11.27;5.65;;;;;;;;;;4985257;28;20207;-79
2021/03/03 11:14:30;;;;;;;11.32;6.25;;;;;;;;;;4984909;28;20190;-78
2021/03/03 11:16:58;;;;;;;14.30;5.95;;;;;;;;;;4964477;28;20177;-78
2021/03/03 11:19:24;;;;;;;10.35;5.95;;;;;;;;;;4964695;28;20320;-79
2021/03/03 11:21:54;;;;;;;11.23;5.22;;;;;;;;;;4966678;28;20209;-79
2021/03/03 11:24:21;;;;;;;12.95;5.97;;;;;;;;;;4967243;28;20185;-79
2021/03/03 11:26:47;;;;;;;15.18;5.82;;;;;;;;;;4984220;28;20229;-80
2021/03/03 11:29:14;;;;;;;10.32;5.75;;;;;;;;;;4984104;28;20212;-79
2021/03/03 11:31:40;;;;;;;7.72;4.70;;;;;;;;;;4983845;28;20213;-80
2021/03/03 11:34:06;;;;;;;10.75;5.20;;;;;;;;;;4984846;28;20217;-79
2021/03/03 11:36:33;;;;;;;17.13;6.83;;;;;;;;;;4967193;28;20180;-79
2021/03/03 11:38:59;;;;;;;9.85;5.80;;;;;;;;;;4983661;28;20419;-79
2021/03/03 11:41:25;;;;;;;9.37;5.07;;;;;;;;;;4983576;28;20231;-80
2021/03/03 11:43:51;;;;;;;10.95;5.65;;;;;;;;;;4964900;28;20430;-79
2021/03/03 11:46:17;;;;;;;8.75;5.13;;;;;;;;;;4984257;28;20249;-78
2021/03/03 11:48:43;;;;;;;10.75;4.43;;;;;;;;;;4984407;28;20277;-79
2021/03/03 11:51:09;;;;;;;5.73;4.93;;;;;;;;;;4985556;28;20661;-79
2021/03/03 11:53:35;;;;;;;8.70;4.90;;;;;;;;;;4963304;28;20445;-78
2021/03/03 11:56:01;;;;;;;14.10;5.40;;;;;;;;;;4983737;28;20206;-80
2021/03/03 11:58:27;;;;;;;9.80;5.30;;;;;;;;;;4984150;28;20190;-78
2021/03/03 12:00:53;;;;;;;13.60;4.77;;;;;;;;;;4966241;28;20195;-79
2021/03/03 12:03:19;;;;;;;13.88;5.93;;;;;;;;;;4966657;28;20422;-79
2021/03/03 12:05:45;;;;;;;10.33;5.53;;;;;;;;;;4984729;28;20176;-79
2021/03/03 12:08:11;;;;;;;16.33;5.77;;;;;;;;;;4963755;28;20463;-79
2021/03/03 12:10:38;;;;;;;8.85;6.07;;;;;;;;;;4983631;28;20449;-79
2021/03/03 12:13:05;;;;;;;12.13;5.50;;;;;;;;;;4983703;28;20193;-79
2021/03/03 12:15:31;;;;;;;16.58;5.88;;;;;;;;;;4984340;28;20189;-76
2021/03/03 12:17:57;;;;;;;11.02;5.63;;;;;;;;;;4983510;28;20191;-75
2021/03/03 12:20:28;;;;;;;13.03;5.60;;;;;;;;;;4970623;28;20192;-76
2021/03/03 12:22:54;;;;;;;8.20;5.90;;;;;;;;;;4963090;28;20896;-78
2021/03/03 12:25:20;;;;;;;12.48;7.20;;;;;;;;;;4963570;28;20192;-76
2021/03/03 12:27:46;;;;;;;10.57;5.65;;;;;;;;;;4983922;28;20185;-77
2021/03/03 12:30:12;;;;;;;10.63;6.20;;;;;;;;;;4967931;28;20184;-76
2021/03/03 12:32:38;;;;;;;12.27;5.63;;;;;;;;;;4983677;28;20194;-75
2021/03/03 12:35:05;;;;;;;9.23;4.77;;;;;;;;;;4963741;28;20192;-75
2021/03/03 12:37:31;;;;;;;9.55;4.40;;;;;;;;;;4983423;28;20452;-76
2021/03/03 12:39:57;;;;;;;7.55;5.25;;;;;;;;;;4963717;28;20189;-76
2021/03/03 12:42:23;;;;;;;15.15;5.30;;;;;;;;;;4986305;28;20204;-77
2021/03/03 12:44:49;;;;;;;12.63;6.07;;;;;;;;;;4988065;28;20187;-76
2021/03/03 12:47:16;;;;;;;8.00;5.10;;;;;;;;;;4987368;28;20255;-75
2021/03/03 12:49:43;;;;;;;12.77;5.88;;;;;;;;;;4987493;28;20182;-75
2021/03/03 12:52:09;;;;;;;9.20;4.90;;;;;;;;;;4986993;28;20315;-76
2021/03/03 12:54:35;;;;;;;9.30;5.50;;;;;;;;;;4987665;28;20957;-75
2021/03/03 12:57:01;;;;;;;11.23;5.30;;;;;;;;;;4986264;28;20195;-77
2021/03/03 12:59:26;;;;;;;9.83;6.63;;;;;;;;;;4973231;28;20443;-76
2021/03/03 13:01:52;;;;;;;9.90;5.70;;;;;;;;;;4987234;28;20481;-77
2021/03/03 13:04:18;;;;;;;14.53;7.37;;;;;;;;;;4987164;28;20831;-80
2021/03/03 13:06:44;;;;;;;11.10;7.28;;;;;;;;;;4986571;28;20787;-78
2021/03/03 13:09:10;;;;;;;15.73;7.27;;;;;;;;;;4987933;28;20181;-75
2021/03/03 13:11:36;;;;;;;11.47;6.73;;;;;;;;;;4986546;28;20427;-84
2021/03/03 13:14:02;;;;;;;15.10;6.87;;;;;;;;;;4986863;28;20467;-76
2021/03/03 13:16:28;;;;;;;10.88;6.00;;;;;;;;;;4966398;28;20451;-76
2021/03/03 13:18:54;;;;;;;13.33;6.20;;;;;;;;;;4986880;28;20220;-81
2021/03/03 13:21:20;;;;;;;8.93;6.27;;;;;;;;;;4986871;28;20459;-77
2021/03/03 13:23:46;;;;;;;10.77;7.10;;;;;;;;;;4987602;28;20443;-76
2021/03/03 13:26:12;;;;;;;9.10;5.70;;;;;;;;;;4986219;28;20191;-76
2021/03/03 13:28:38;;;;;;;8.77;5.68;;;;;;;;;;4986559;28;20195;-76
2021/03/03 13:31:04;;;;;;;10.40;6.07;;;;;;;;;;4986890;28;20188;-75
2021/03/03 13:33:30;;;;;;;9.13;6.77;;;;;;;;;;4986545;28;20453;-75
2021/03/03 13:35:56;;;;;;;9.90;5.73;;;;;;;;;;4986490;28;20454;-75
2021/03/03 13:38:23;;;;;;;7.47;5.97;;;;;;;;;;4986744;28;20431;-75
2021/03/03 13:40:49;;;;;;;19.58;6.75;;;;;;;;;;4985520;28;20439;-77
2021/03/03 13:43:15;;;;;;;10.48;6.90;;;;;;;;;;4966392;28;20180;-75
2021/03/03 13:45:41;;;;;;;10.10;6.43;;;;;;;;;;4986062;28;20668;-76
2021/03/03 13:48:07;;;;;;;12.33;6.13;;;;;;;;;;4986877;28;20223;-76
2021/03/03 13:50:33;;;;;;;8.43;6.90;;;;;;;;;;4964976;28;20443;-76
2021/03/03 13:52:59;;;;;;;11.57;6.13;;;;;;;;;;4985158;28;20274;-76
2021/03/03 13:55:25;;;;;;;8.60;6.30;;;;;;;;;;4986042;28;20223;-76
2021/03/03 13:57:51;;;;;;;7.55;6.70;;;;;;;;;;4986071;28;20949;-76
2021/03/03 14:00:18;;;;;;;13.85;6.18;;;;;;;;;;4986129;28;20180;-76
2021/03/03 14:02:44;;;;;;;9.43;6.80;;;;;;;;;;4982847;28;20660;-75
2021/03/03 14:05:10;;;;;;;10.40;6.47;;;;;;;;;;4985662;28;20201;-76
2021/03/03 14:07:36;;;;;;;8.40;5.97;;;;;;;;;;4985489;28;20472;-75
2021/03/03 14:10:03;;;;;;;14.82;7.18;;;;;;;;;;4965315;28;20671;-76
2021/03/03 14:12:29;;;;;;;8.70;6.00;;;;;;;;;;4985838;28;20254;-77
2021/03/03 14:14:55;;;;;;;9.57;6.13;;;;;;;;;;4984990;28;20184;-76
2021/03/03 14:17:21;;;;;;;12.70;7.43;;;;;;;;;;4985278;28;20872;-76
2021/03/03 14:19:48;;;;;;;14.38;7.20;;;;;;;;;;4984887;28;20450;-76
2021/03/03 14:22:14;;;;;;;10.77;5.97;;;;;;;;;;4985578;28;20675;-75
2021/03/03 14:24:40;;;;;;;7.30;5.37;;;;;;;;;;4985584;28;20208;-75